sensor_id;sensor_type;location;lat;lon;timestamp;P1;durP1;ratioP1;P2;durP2;ratioP2
25207;SDS011;13153;52.316;21.166;2022-12-29T00:00:00;16.98;;;8.10;;
25207;SDS011;13153;52.316;21.166;2022-12-29T00:02:28;17.20;;;8.68;;
25207;SDS011;13153;52.316;21.166;2022-12-29T00:04:54;21.30;;;9.00;;
25207;SDS011;13153;52.316;21.166;2022-12-29T00:07:19;15.98;;;8.38;;
25207;SDS011;13153;52.316;21.166;2022-12-29T00:09:45;17.92;;;9.35;;
25207;SDS011;13153;52.316;21.166;2022-12-29T00:12:11;18.08;;;8.90;;
25207;SDS011;13153;52.316;21.166;2022-12-29T00:14:37;17.08;;;8.48;;
25207;SDS011;13153;52.316;21.166;2022-12-29T00:17:21;17.00;;;8.20;;
25207;SDS011;13153;52.316;21.166;2022-12-29T00:19:47;16.85;;;8.75;;
25207;SDS011;13153;52.316;21.166;2022-12-29T00:22:31;14.35;;;7.85;;
25207;SDS011;13153;52.316;21.166;2022-12-29T00:25:15;15.67;;;8.40;;
25207;SDS011;13153;52.316;21.166;2022-12-29T00:28:00;16.27;;;8.27;;
25207;SDS011;13153;52.316;21.166;2022-12-29T00:30:45;19.00;;;8.85;;
25207;SDS011;13153;52.316;21.166;2022-12-29T00:33:29;17.13;;;8.10;;
25207;SDS011;13153;52.316;21.166;2022-12-29T00:38:49;15.63;;;8.23;;
25207;SDS011;13153;52.316;21.166;2022-12-29T00:41:43;17.90;;;7.67;;
25207;SDS011;13153;52.316;21.166;2022-12-29T00:44:27;17.60;;;8.02;;
25207;SDS011;13153;52.316;21.166;2022-12-29T00:46:53;18.10;;;8.75;;
25207;SDS011;13153;52.316;21.166;2022-12-29T00:49:19;15.48;;;8.05;;
25207;SDS011;13153;52.316;21.166;2022-12-29T00:52:07;16.50;;;8.00;;
25207;SDS011;13153;52.316;21.166;2022-12-29T00:54:36;16.00;;;8.20;;
25207;SDS011;13153;52.316;21.166;2022-12-29T00:57:05;15.32;;;7.70;;
25207;SDS011;13153;52.316;21.166;2022-12-29T00:59:37;14.20;;;7.13;;
25207;SDS011;13153;52.316;21.166;2022-12-29T01:02:04;15.35;;;7.68;;
25207;SDS011;13153;52.316;21.166;2022-12-29T01:04:31;18.05;;;7.60;;
25207;SDS011;13153;52.316;21.166;2022-12-29T01:06:57;14.27;;;7.13;;
25207;SDS011;13153;52.316;21.166;2022-12-29T01:09:23;13.90;;;7.70;;
25207;SDS011;13153;52.316;21.166;2022-12-29T01:12:09;14.50;;;7.45;;
25207;SDS011;13153;52.316;21.166;2022-12-29T01:14:36;16.65;;;7.30;;
25207;SDS011;13153;52.316;21.166;2022-12-29T01:17:03;13.77;;;7.18;;
25207;SDS011;13153;52.316;21.166;2022-12-29T01:19:30;15.18;;;7.65;;
25207;SDS011;13153;52.316;21.166;2022-12-29T01:21:56;13.63;;;7.40;;
25207;SDS011;13153;52.316;21.166;2022-12-29T01:24:22;15.40;;;7.50;;
25207;SDS011;13153;52.316;21.166;2022-12-29T01:26:49;16.02;;;7.63;;
25207;SDS011;13153;52.316;21.166;2022-12-29T01:29:15;14.25;;;7.30;;
25207;SDS011;13153;52.316;21.166;2022-12-29T01:31:41;14.93;;;7.40;;
25207;SDS011;13153;52.316;21.166;2022-12-29T01:34:07;15.63;;;7.63;;
25207;SDS011;13153;52.316;21.166;2022-12-29T01:36:33;19.48;;;8.02;;
25207;SDS011;13153;52.316;21.166;2022-12-29T01:38:59;15.43;;;7.25;;
25207;SDS011;13153;52.316;21.166;2022-12-29T01:41:25;15.70;;;7.65;;
25207;SDS011;13153;52.316;21.166;2022-12-29T01:43:58;14.90;;;7.10;;
25207;SDS011;13153;52.316;21.166;2022-12-29T01:51:54;13.43;;;6.43;;
25207;SDS011;13153;52.316;21.166;2022-12-29T01:54:30;13.63;;;6.60;;
25207;SDS011;13153;52.316;21.166;2022-12-29T01:57:08;16.27;;;7.00;;
25207;SDS011;13153;52.316;21.166;2022-12-29T02:02:14;12.02;;;6.10;;
25207;SDS011;13153;52.316;21.166;2022-12-29T02:04:41;11.68;;;6.32;;
25207;SDS011;13153;52.316;21.166;2022-12-29T02:07:20;14.30;;;7.05;;
25207;SDS011;13153;52.316;21.166;2022-12-29T02:09:51;12.45;;;6.55;;
25207;SDS011;13153;52.316;21.166;2022-12-29T02:12:21;11.27;;;6.35;;
25207;SDS011;13153;52.316;21.166;2022-12-29T02:14:49;13.20;;;6.28;;
25207;SDS011;13153;52.316;21.166;2022-12-29T02:17:27;13.10;;;5.70;;
25207;SDS011;13153;52.316;21.166;2022-12-29T02:31:45;11.27;;;5.68;;
25207;SDS011;13153;52.316;21.166;2022-12-29T02:34:39;12.32;;;5.90;;
25207;SDS011;13153;52.316;21.166;2022-12-29T02:37:20;12.27;;;5.97;;
25207;SDS011;13153;52.316;21.166;2022-12-29T02:48:10;12.95;;;6.18;;
25207;SDS011;13153;52.316;21.166;2022-12-29T02:51:10;12.45;;;6.05;;
25207;SDS011;13153;52.316;21.166;2022-12-29T02:54:00;12.93;;;5.93;;
25207;SDS011;13153;52.316;21.166;2022-12-29T02:56:45;13.02;;;6.35;;
25207;SDS011;13153;52.316;21.166;2022-12-29T02:59:11;12.85;;;5.90;;
25207;SDS011;13153;52.316;21.166;2022-12-29T03:07:56;12.73;;;6.17;;
25207;SDS011;13153;52.316;21.166;2022-12-29T03:13:48;10.95;;;5.88;;
25207;SDS011;13153;52.316;21.166;2022-12-29T03:22:02;10.73;;;5.80;;
25207;SDS011;13153;52.316;21.166;2022-12-29T03:24:52;15.20;;;6.22;;
25207;SDS011;13153;52.316;21.166;2022-12-29T03:27:47;10.85;;;5.20;;
25207;SDS011;13153;52.316;21.166;2022-12-29T03:30:21;10.07;;;6.00;;
25207;SDS011;13153;52.316;21.166;2022-12-29T03:32:53;12.50;;;5.53;;
25207;SDS011;13153;52.316;21.166;2022-12-29T03:35:25;12.38;;;5.80;;
25207;SDS011;13153;52.316;21.166;2022-12-29T03:38:02;12.45;;;6.43;;
25207;SDS011;13153;52.316;21.166;2022-12-29T03:40:48;10.23;;;5.43;;
25207;SDS011;13153;52.316;21.166;2022-12-29T03:43:21;11.77;;;6.05;;
25207;SDS011;13153;52.316;21.166;2022-12-29T03:45:47;10.40;;;6.10;;
25207;SDS011;13153;52.316;21.166;2022-12-29T03:48:13;11.40;;;5.80;;
25207;SDS011;13153;52.316;21.166;2022-12-29T03:50:39;12.75;;;6.07;;
25207;SDS011;13153;52.316;21.166;2022-12-29T03:53:05;10.93;;;5.50;;
25207;SDS011;13153;52.316;21.166;2022-12-29T03:55:31;13.05;;;6.18;;
25207;SDS011;13153;52.316;21.166;2022-12-29T03:57:57;14.15;;;6.30;;
25207;SDS011;13153;52.316;21.166;2022-12-29T04:00:23;10.27;;;5.80;;
25207;SDS011;13153;52.316;21.166;2022-12-29T04:02:49;12.95;;;6.22;;
25207;SDS011;13153;52.316;21.166;2022-12-29T04:05:15;12.93;;;6.32;;
25207;SDS011;13153;52.316;21.166;2022-12-29T04:07:41;12.55;;;6.30;;
25207;SDS011;13153;52.316;21.166;2022-12-29T04:10:07;12.52;;;5.82;;
25207;SDS011;13153;52.316;21.166;2022-12-29T04:12:33;12.30;;;6.18;;
25207;SDS011;13153;52.316;21.166;2022-12-29T04:14:59;15.45;;;6.18;;
25207;SDS011;13153;52.316;21.166;2022-12-29T04:17:24;9.82;;;5.65;;
25207;SDS011;13153;52.316;21.166;2022-12-29T04:19:50;14.20;;;6.32;;
25207;SDS011;13153;52.316;21.166;2022-12-29T04:22:16;10.18;;;5.55;;
25207;SDS011;13153;52.316;21.166;2022-12-29T04:24:42;11.35;;;6.20;;
25207;SDS011;13153;52.316;21.166;2022-12-29T04:27:08;11.40;;;6.05;;
25207;SDS011;13153;52.316;21.166;2022-12-29T04:29:33;13.57;;;6.57;;
25207;SDS011;13153;52.316;21.166;2022-12-29T04:31:59;14.18;;;6.45;;
25207;SDS011;13153;52.316;21.166;2022-12-29T04:34:25;14.88;;;6.95;;
25207;SDS011;13153;52.316;21.166;2022-12-29T04:36:51;12.45;;;6.43;;
25207;SDS011;13153;52.316;21.166;2022-12-29T04:39:17;13.57;;;7.35;;
25207;SDS011;13153;52.316;21.166;2022-12-29T04:41:42;15.27;;;7.20;;
25207;SDS011;13153;52.316;21.166;2022-12-29T04:44:08;18.35;;;8.15;;
25207;SDS011;13153;52.316;21.166;2022-12-29T04:46:34;17.08;;;7.53;;
25207;SDS011;13153;52.316;21.166;2022-12-29T04:48:59;15.15;;;8.02;;
25207;SDS011;13153;52.316;21.166;2022-12-29T04:51:29;19.77;;;8.60;;
25207;SDS011;13153;52.316;21.166;2022-12-29T04:53:55;16.30;;;7.68;;
25207;SDS011;13153;52.316;21.166;2022-12-29T04:56:21;17.25;;;8.48;;
25207;SDS011;13153;52.316;21.166;2022-12-29T04:58:46;17.88;;;8.65;;
25207;SDS011;13153;52.316;21.166;2022-12-29T05:01:12;19.52;;;9.02;;
25207;SDS011;13153;52.316;21.166;2022-12-29T05:03:38;20.92;;;9.23;;
25207;SDS011;13153;52.316;21.166;2022-12-29T05:06:04;18.85;;;9.48;;
25207;SDS011;13153;52.316;21.166;2022-12-29T05:08:30;17.40;;;8.52;;
25207;SDS011;13153;52.316;21.166;2022-12-29T05:10:56;22.25;;;9.40;;
25207;SDS011;13153;52.316;21.166;2022-12-29T05:13:21;21.80;;;9.13;;
25207;SDS011;13153;52.316;21.166;2022-12-29T05:15:51;22.30;;;8.85;;
25207;SDS011;13153;52.316;21.166;2022-12-29T05:18:18;17.23;;;8.77;;
25207;SDS011;13153;52.316;21.166;2022-12-29T05:20:44;20.83;;;8.45;;
25207;SDS011;13153;52.316;21.166;2022-12-29T05:23:11;24.00;;;10.68;;
25207;SDS011;13153;52.316;21.166;2022-12-29T05:25:38;21.85;;;10.25;;
25207;SDS011;13153;52.316;21.166;2022-12-29T05:28:04;21.60;;;10.27;;
25207;SDS011;13153;52.316;21.166;2022-12-29T05:30:30;23.42;;;10.63;;
25207;SDS011;13153;52.316;21.166;2022-12-29T05:32:55;22.30;;;10.07;;
25207;SDS011;13153;52.316;21.166;2022-12-29T05:35:21;21.27;;;9.32;;
25207;SDS011;13153;52.316;21.166;2022-12-29T05:37:47;16.92;;;8.38;;
25207;SDS011;13153;52.316;21.166;2022-12-29T05:40:13;18.00;;;9.25;;
25207;SDS011;13153;52.316;21.166;2022-12-29T05:42:39;23.42;;;11.25;;
25207;SDS011;13153;52.316;21.166;2022-12-29T05:45:05;25.77;;;11.13;;
25207;SDS011;13153;52.316;21.166;2022-12-29T05:47:32;20.60;;;10.82;;
25207;SDS011;13153;52.316;21.166;2022-12-29T05:49:58;19.77;;;10.00;;
25207;SDS011;13153;52.316;21.166;2022-12-29T05:52:24;21.00;;;10.27;;
25207;SDS011;13153;52.316;21.166;2022-12-29T05:54:49;21.45;;;10.75;;
25207;SDS011;13153;52.316;21.166;2022-12-29T05:57:15;19.55;;;9.77;;
25207;SDS011;13153;52.316;21.166;2022-12-29T05:59:41;22.83;;;9.50;;
25207;SDS011;13153;52.316;21.166;2022-12-29T06:02:08;22.52;;;9.85;;
25207;SDS011;13153;52.316;21.166;2022-12-29T06:04:34;24.98;;;11.82;;
25207;SDS011;13153;52.316;21.166;2022-12-29T06:07:00;37.95;;;16.27;;
25207;SDS011;13153;52.316;21.166;2022-12-29T06:09:26;24.40;;;10.98;;
25207;SDS011;13153;52.316;21.166;2022-12-29T06:11:52;25.35;;;11.55;;
25207;SDS011;13153;52.316;21.166;2022-12-29T06:14:18;26.70;;;11.25;;
25207;SDS011;13153;52.316;21.166;2022-12-29T06:16:44;23.40;;;10.75;;
25207;SDS011;13153;52.316;21.166;2022-12-29T06:19:09;23.45;;;10.50;;
25207;SDS011;13153;52.316;21.166;2022-12-29T06:21:35;25.60;;;10.45;;
25207;SDS011;13153;52.316;21.166;2022-12-29T06:24:02;23.88;;;9.88;;
25207;SDS011;13153;52.316;21.166;2022-12-29T06:26:29;23.25;;;10.07;;
25207;SDS011;13153;52.316;21.166;2022-12-29T06:28:55;23.55;;;10.70;;
25207;SDS011;13153;52.316;21.166;2022-12-29T06:31:21;22.38;;;9.93;;
25207;SDS011;13153;52.316;21.166;2022-12-29T06:33:47;21.38;;;9.75;;
25207;SDS011;13153;52.316;21.166;2022-12-29T06:36:13;22.58;;;9.35;;
25207;SDS011;13153;52.316;21.166;2022-12-29T06:38:38;19.45;;;10.23;;
25207;SDS011;13153;52.316;21.166;2022-12-29T06:41:04;21.52;;;9.02;;
25207;SDS011;13153;52.316;21.166;2022-12-29T06:43:30;20.55;;;9.65;;
25207;SDS011;13153;52.316;21.166;2022-12-29T06:45:57;20.40;;;9.63;;
25207;SDS011;13153;52.316;21.166;2022-12-29T06:48:23;16.80;;;8.60;;
25207;SDS011;13153;52.316;21.166;2022-12-29T06:50:49;20.90;;;8.82;;
25207;SDS011;13153;52.316;21.166;2022-12-29T06:53:14;20.40;;;9.77;;
25207;SDS011;13153;52.316;21.166;2022-12-29T06:55:41;21.42;;;9.95;;
25207;SDS011;13153;52.316;21.166;2022-12-29T06:58:07;22.52;;;10.30;;
25207;SDS011;13153;52.316;21.166;2022-12-29T07:00:33;22.50;;;11.27;;
25207;SDS011;13153;52.316;21.166;2022-12-29T07:02:59;23.92;;;11.05;;
25207;SDS011;13153;52.316;21.166;2022-12-29T07:05:25;23.60;;;10.40;;
25207;SDS011;13153;52.316;21.166;2022-12-29T07:07:52;22.17;;;9.55;;
25207;SDS011;13153;52.316;21.166;2022-12-29T07:10:20;21.77;;;10.07;;
25207;SDS011;13153;52.316;21.166;2022-12-29T07:12:47;21.98;;;10.15;;
25207;SDS011;13153;52.316;21.166;2022-12-29T07:15:13;20.60;;;10.23;;
25207;SDS011;13153;52.316;21.166;2022-12-29T07:17:39;24.58;;;9.50;;
25207;SDS011;13153;52.316;21.166;2022-12-29T07:20:05;19.83;;;9.13;;
25207;SDS011;13153;52.316;21.166;2022-12-29T07:22:32;20.55;;;9.43;;
25207;SDS011;13153;52.316;21.166;2022-12-29T07:24:58;21.08;;;9.63;;
25207;SDS011;13153;52.316;21.166;2022-12-29T07:27:24;19.38;;;8.82;;
25207;SDS011;13153;52.316;21.166;2022-12-29T07:29:49;15.80;;;8.10;;
25207;SDS011;13153;52.316;21.166;2022-12-29T07:32:15;18.98;;;8.18;;
25207;SDS011;13153;52.316;21.166;2022-12-29T07:34:41;22.90;;;9.30;;
25207;SDS011;13153;52.316;21.166;2022-12-29T07:37:07;19.23;;;8.75;;
25207;SDS011;13153;52.316;21.166;2022-12-29T07:39:33;20.55;;;8.38;;
25207;SDS011;13153;52.316;21.166;2022-12-29T07:41:58;17.00;;;7.78;;
25207;SDS011;13153;52.316;21.166;2022-12-29T07:44:24;21.60;;;8.80;;
25207;SDS011;13153;52.316;21.166;2022-12-29T07:46:50;19.63;;;8.60;;
25207;SDS011;13153;52.316;21.166;2022-12-29T07:49:16;21.50;;;9.68;;
25207;SDS011;13153;52.316;21.166;2022-12-29T07:51:41;21.15;;;9.40;;
25207;SDS011;13153;52.316;21.166;2022-12-29T07:54:08;20.17;;;9.27;;
25207;SDS011;13153;52.316;21.166;2022-12-29T07:56:34;18.60;;;8.73;;
25207;SDS011;13153;52.316;21.166;2022-12-29T07:59:00;22.55;;;9.30;;
25207;SDS011;13153;52.316;21.166;2022-12-29T08:01:26;20.10;;;9.15;;
25207;SDS011;13153;52.316;21.166;2022-12-29T08:03:52;18.48;;;8.60;;
25207;SDS011;13153;52.316;21.166;2022-12-29T08:06:17;21.00;;;8.93;;
25207;SDS011;13153;52.316;21.166;2022-12-29T08:08:44;19.88;;;8.52;;
25207;SDS011;13153;52.316;21.166;2022-12-29T08:11:10;17.85;;;8.55;;
25207;SDS011;13153;52.316;21.166;2022-12-29T08:13:36;17.95;;;8.93;;
25207;SDS011;13153;52.316;21.166;2022-12-29T08:16:02;19.73;;;8.85;;
25207;SDS011;13153;52.316;21.166;2022-12-29T08:18:28;17.30;;;8.45;;
25207;SDS011;13153;52.316;21.166;2022-12-29T08:20:53;19.10;;;8.80;;
25207;SDS011;13153;52.316;21.166;2022-12-29T08:23:19;17.98;;;8.50;;
25207;SDS011;13153;52.316;21.166;2022-12-29T08:25:45;15.60;;;7.88;;
25207;SDS011;13153;52.316;21.166;2022-12-29T08:28:11;17.17;;;8.13;;
25207;SDS011;13153;52.316;21.166;2022-12-29T08:30:37;16.90;;;7.88;;
25207;SDS011;13153;52.316;21.166;2022-12-29T08:33:03;15.02;;;7.40;;
25207;SDS011;13153;52.316;21.166;2022-12-29T08:35:29;15.65;;;7.70;;
25207;SDS011;13153;52.316;21.166;2022-12-29T08:37:54;16.27;;;8.15;;
25207;SDS011;13153;52.316;21.166;2022-12-29T08:40:20;16.52;;;8.05;;
25207;SDS011;13153;52.316;21.166;2022-12-29T08:42:46;18.13;;;8.23;;
25207;SDS011;13153;52.316;21.166;2022-12-29T08:45:12;16.25;;;7.72;;
25207;SDS011;13153;52.316;21.166;2022-12-29T08:47:37;17.85;;;8.50;;
25207;SDS011;13153;52.316;21.166;2022-12-29T08:50:03;17.75;;;8.00;;
25207;SDS011;13153;52.316;21.166;2022-12-29T08:52:30;16.65;;;8.43;;
25207;SDS011;13153;52.316;21.166;2022-12-29T08:54:56;15.27;;;8.35;;
25207;SDS011;13153;52.316;21.166;2022-12-29T08:57:21;20.60;;;9.70;;
25207;SDS011;13153;52.316;21.166;2022-12-29T08:59:47;20.98;;;9.77;;
25207;SDS011;13153;52.316;21.166;2022-12-29T09:02:13;24.88;;;10.93;;
25207;SDS011;13153;52.316;21.166;2022-12-29T09:04:39;22.95;;;10.63;;
25207;SDS011;13153;52.316;21.166;2022-12-29T09:07:04;21.13;;;9.30;;
25207;SDS011;13153;52.316;21.166;2022-12-29T09:09:30;19.20;;;9.65;;
25207;SDS011;13153;52.316;21.166;2022-12-29T09:11:57;17.65;;;8.98;;
25207;SDS011;13153;52.316;21.166;2022-12-29T09:14:23;19.95;;;9.23;;
25207;SDS011;13153;52.316;21.166;2022-12-29T09:16:50;19.85;;;9.30;;
25207;SDS011;13153;52.316;21.166;2022-12-29T09:19:36;21.95;;;9.05;;
25207;SDS011;13153;52.316;21.166;2022-12-29T09:22:02;20.80;;;9.48;;
25207;SDS011;13153;52.316;21.166;2022-12-29T09:24:28;20.27;;;9.98;;
25207;SDS011;13153;52.316;21.166;2022-12-29T09:26:53;15.93;;;7.68;;
25207;SDS011;13153;52.316;21.166;2022-12-29T09:29:19;15.75;;;7.38;;
25207;SDS011;13153;52.316;21.166;2022-12-29T09:31:45;13.88;;;7.22;;
25207;SDS011;13153;52.316;21.166;2022-12-29T09:34:11;16.33;;;7.13;;
25207;SDS011;13153;52.316;21.166;2022-12-29T09:36:37;14.00;;;6.90;;
25207;SDS011;13153;52.316;21.166;2022-12-29T09:39:02;15.75;;;7.75;;
25207;SDS011;13153;52.316;21.166;2022-12-29T09:41:36;14.23;;;6.85;;
25207;SDS011;13153;52.316;21.166;2022-12-29T09:46:56;12.32;;;6.88;;
25207;SDS011;13153;52.316;21.166;2022-12-29T09:49:29;13.70;;;7.05;;
25207;SDS011;13153;52.316;21.166;2022-12-29T09:55:47;13.43;;;7.05;;
25207;SDS011;13153;52.316;21.166;2022-12-29T09:58:25;13.75;;;6.57;;
25207;SDS011;13153;52.316;21.166;2022-12-29T10:01:06;14.32;;;7.20;;
25207;SDS011;13153;52.316;21.166;2022-12-29T10:04:06;11.05;;;6.15;;
25207;SDS011;13153;52.316;21.166;2022-12-29T10:06:35;13.35;;;6.78;;
25207;SDS011;13153;52.316;21.166;2022-12-29T10:17:46;11.77;;;6.05;;
25207;SDS011;13153;52.316;21.166;2022-12-29T10:20:58;15.80;;;6.63;;
25207;SDS011;13153;52.316;21.166;2022-12-29T10:23:42;14.30;;;7.60;;
25207;SDS011;13153;52.316;21.166;2022-12-29T10:26:16;12.88;;;6.78;;
25207;SDS011;13153;52.316;21.166;2022-12-29T10:28:54;14.35;;;6.40;;
25207;SDS011;13153;52.316;21.166;2022-12-29T10:31:26;13.48;;;6.40;;
25207;SDS011;13153;52.316;21.166;2022-12-29T10:34:06;13.52;;;6.40;;
25207;SDS011;13153;52.316;21.166;2022-12-29T10:36:46;10.77;;;6.10;;
25207;SDS011;13153;52.316;21.166;2022-12-29T10:39:33;18.30;;;6.75;;
25207;SDS011;13153;52.316;21.166;2022-12-29T10:44:46;12.07;;;6.75;;
25207;SDS011;13153;52.316;21.166;2022-12-29T10:47:16;14.77;;;7.07;;
25207;SDS011;13153;52.316;21.166;2022-12-29T10:49:48;14.02;;;6.93;;
25207;SDS011;13153;52.316;21.166;2022-12-29T10:52:16;12.93;;;7.10;;
25207;SDS011;13153;52.316;21.166;2022-12-29T10:55:02;14.45;;;7.15;;
25207;SDS011;13153;52.316;21.166;2022-12-29T10:57:39;15.82;;;7.65;;
25207;SDS011;13153;52.316;21.166;2022-12-29T11:00:18;13.52;;;6.93;;
25207;SDS011;13153;52.316;21.166;2022-12-29T11:08:22;17.15;;;7.20;;
25207;SDS011;13153;52.316;21.166;2022-12-29T11:13:32;16.00;;;6.82;;
25207;SDS011;13153;52.316;21.166;2022-12-29T11:16:11;13.02;;;6.78;;
25207;SDS011;13153;52.316;21.166;2022-12-29T11:18:38;18.92;;;7.72;;
25207;SDS011;13153;52.316;21.166;2022-12-29T11:21:24;14.93;;;7.32;;
25207;SDS011;13153;52.316;21.166;2022-12-29T11:24:23;15.27;;;7.15;;
25207;SDS011;13153;52.316;21.166;2022-12-29T11:26:53;15.07;;;7.80;;
25207;SDS011;13153;52.316;21.166;2022-12-29T11:29:40;18.25;;;8.88;;
25207;SDS011;13153;52.316;21.166;2022-12-29T11:32:24;17.13;;;8.77;;
25207;SDS011;13153;52.316;21.166;2022-12-29T11:34:54;18.55;;;8.10;;
25207;SDS011;13153;52.316;21.166;2022-12-29T11:40:17;16.95;;;7.80;;
25207;SDS011;13153;52.316;21.166;2022-12-29T11:42:50;18.08;;;8.15;;
25207;SDS011;13153;52.316;21.166;2022-12-29T11:45:35;15.68;;;7.60;;
25207;SDS011;13153;52.316;21.166;2022-12-29T11:48:09;16.65;;;7.70;;
25207;SDS011;13153;52.316;21.166;2022-12-29T11:50:48;15.73;;;7.38;;
25207;SDS011;13153;52.316;21.166;2022-12-29T11:56:20;15.15;;;7.43;;
25207;SDS011;13153;52.316;21.166;2022-12-29T11:59:34;13.68;;;6.85;;
25207;SDS011;13153;52.316;21.166;2022-12-29T12:02:20;14.55;;;7.20;;
25207;SDS011;13153;52.316;21.166;2022-12-29T12:10:45;14.85;;;7.32;;
25207;SDS011;13153;52.316;21.166;2022-12-29T12:16:09;12.35;;;6.78;;
25207;SDS011;13153;52.316;21.166;2022-12-29T12:21:23;14.23;;;6.80;;
25207;SDS011;13153;52.316;21.166;2022-12-29T12:26:50;17.42;;;8.35;;
25207;SDS011;13153;52.316;21.166;2022-12-29T12:32:19;15.43;;;7.95;;
25207;SDS011;13153;52.316;21.166;2022-12-29T12:34:53;16.58;;;7.38;;
25207;SDS011;13153;52.316;21.166;2022-12-29T12:40:21;13.80;;;7.67;;
25207;SDS011;13153;52.316;21.166;2022-12-29T12:43:14;17.75;;;7.95;;
25207;SDS011;13153;52.316;21.166;2022-12-29T12:51:59;17.40;;;8.48;;
25207;SDS011;13153;52.316;21.166;2022-12-29T12:58:02;16.35;;;8.23;;
25207;SDS011;13153;52.316;21.166;2022-12-29T13:23:32;14.93;;;7.55;;
25207;SDS011;13153;52.316;21.166;2022-12-29T13:26:22;17.27;;;8.57;;
25207;SDS011;13153;52.316;21.166;2022-12-29T13:31:58;21.05;;;9.30;;
25207;SDS011;13153;52.316;21.166;2022-12-29T13:37:31;20.92;;;9.40;;
25207;SDS011;13153;52.316;21.166;2022-12-29T13:40:13;18.30;;;9.30;;
25207;SDS011;13153;52.316;21.166;2022-12-29T13:42:46;17.83;;;9.00;;
25207;SDS011;13153;52.316;21.166;2022-12-29T13:45:14;16.63;;;8.60;;
25207;SDS011;13153;52.316;21.166;2022-12-29T13:47:54;18.10;;;8.75;;
25207;SDS011;13153;52.316;21.166;2022-12-29T13:50:41;17.60;;;8.15;;
25207;SDS011;13153;52.316;21.166;2022-12-29T13:59:35;20.80;;;11.05;;
25207;SDS011;13153;52.316;21.166;2022-12-29T14:07:48;20.30;;;10.38;;
25207;SDS011;13153;52.316;21.166;2022-12-29T14:10:48;17.58;;;9.85;;
25207;SDS011;13153;52.316;21.166;2022-12-29T14:15:52;18.80;;;9.77;;
25207;SDS011;13153;52.316;21.166;2022-12-29T14:18:25;21.33;;;10.15;;
25207;SDS011;13153;52.316;21.166;2022-12-29T14:21:10;25.90;;;11.00;;
25207;SDS011;13153;52.316;21.166;2022-12-29T14:23:48;21.95;;;9.98;;
25207;SDS011;13153;52.316;21.166;2022-12-29T14:28:56;21.20;;;8.82;;
25207;SDS011;13153;52.316;21.166;2022-12-29T14:32:34;18.55;;;8.27;;
25207;SDS011;13153;52.316;21.166;2022-12-29T14:34:49;17.27;;;8.50;;
25207;SDS011;13153;52.316;21.166;2022-12-29T14:37:26;18.42;;;10.23;;
25207;SDS011;13153;52.316;21.166;2022-12-29T14:42:45;22.45;;;11.27;;
25207;SDS011;13153;52.316;21.166;2022-12-29T14:47:42;17.45;;;9.57;;
25207;SDS011;13153;52.316;21.166;2022-12-29T14:50:15;24.83;;;9.95;;
25207;SDS011;13153;52.316;21.166;2022-12-29T14:52:59;20.50;;;8.27;;
25207;SDS011;13153;52.316;21.166;2022-12-29T15:01:20;18.55;;;8.48;;
25207;SDS011;13153;52.316;21.166;2022-12-29T15:04:25;25.15;;;11.65;;
25207;SDS011;13153;52.316;21.166;2022-12-29T15:06:57;22.95;;;10.38;;
25207;SDS011;13153;52.316;21.166;2022-12-29T15:09:35;17.77;;;9.30;;
25207;SDS011;13153;52.316;21.166;2022-12-29T15:12:29;19.45;;;9.85;;
25207;SDS011;13153;52.316;21.166;2022-12-29T15:14:59;18.85;;;9.43;;
25207;SDS011;13153;52.316;21.166;2022-12-29T15:19:59;22.23;;;10.68;;
25207;SDS011;13153;52.316;21.166;2022-12-29T15:22:49;27.17;;;12.95;;
25207;SDS011;13153;52.316;21.166;2022-12-29T15:25:24;30.27;;;13.35;;
25207;SDS011;13153;52.316;21.166;2022-12-29T15:28:01;26.27;;;13.05;;
25207;SDS011;13153;52.316;21.166;2022-12-29T15:30:31;28.50;;;13.00;;
25207;SDS011;13153;52.316;21.166;2022-12-29T15:32:57;30.45;;;14.40;;
25207;SDS011;13153;52.316;21.166;2022-12-29T15:35:31;28.23;;;12.68;;
25207;SDS011;13153;52.316;21.166;2022-12-29T15:38:00;25.63;;;12.15;;
25207;SDS011;13153;52.316;21.166;2022-12-29T15:40:49;27.55;;;12.70;;
25207;SDS011;13153;52.316;21.166;2022-12-29T15:46:18;26.50;;;12.68;;
25207;SDS011;13153;52.316;21.166;2022-12-29T15:48:44;32.50;;;15.13;;
25207;SDS011;13153;52.316;21.166;2022-12-29T15:51:20;35.83;;;15.93;;
25207;SDS011;13153;52.316;21.166;2022-12-29T15:53:55;27.38;;;13.82;;
25207;SDS011;13153;52.316;21.166;2022-12-29T15:56:22;25.63;;;13.23;;
25207;SDS011;13153;52.316;21.166;2022-12-29T15:58:50;27.98;;;13.63;;
25207;SDS011;13153;52.316;21.166;2022-12-29T16:03:54;22.35;;;11.23;;
25207;SDS011;13153;52.316;21.166;2022-12-29T16:06:28;21.55;;;10.57;;
25207;SDS011;13153;52.316;21.166;2022-12-29T16:09:16;20.60;;;9.98;;
25207;SDS011;13153;52.316;21.166;2022-12-29T16:11:53;21.45;;;9.85;;
25207;SDS011;13153;52.316;21.166;2022-12-29T16:14:38;24.20;;;10.55;;
25207;SDS011;13153;52.316;21.166;2022-12-29T16:17:13;22.30;;;10.90;;
25207;SDS011;13153;52.316;21.166;2022-12-29T16:19:49;20.67;;;11.20;;
25207;SDS011;13153;52.316;21.166;2022-12-29T16:22:36;21.58;;;11.07;;
25207;SDS011;13153;52.316;21.166;2022-12-29T16:25:07;23.17;;;10.48;;
25207;SDS011;13153;52.316;21.166;2022-12-29T16:27:53;20.42;;;10.00;;
25207;SDS011;13153;52.316;21.166;2022-12-29T16:30:28;18.85;;;9.98;;
25207;SDS011;13153;52.316;21.166;2022-12-29T16:33:01;22.55;;;10.75;;
25207;SDS011;13153;52.316;21.166;2022-12-29T16:35:38;19.17;;;10.00;;
25207;SDS011;13153;52.316;21.166;2022-12-29T16:43:24;23.23;;;11.02;;
25207;SDS011;13153;52.316;21.166;2022-12-29T16:48:25;19.33;;;9.70;;
25207;SDS011;13153;52.316;21.166;2022-12-29T16:51:04;21.10;;;10.27;;
25207;SDS011;13153;52.316;21.166;2022-12-29T16:53:39;21.02;;;9.98;;
25207;SDS011;13153;52.316;21.166;2022-12-29T16:56:19;22.52;;;10.43;;
25207;SDS011;13153;52.316;21.166;2022-12-29T16:58:51;23.65;;;10.70;;
25207;SDS011;13153;52.316;21.166;2022-12-29T17:01:43;21.15;;;11.50;;
25207;SDS011;13153;52.316;21.166;2022-12-29T17:04:09;28.58;;;14.18;;
25207;SDS011;13153;52.316;21.166;2022-12-29T17:06:38;36.65;;;18.88;;
25207;SDS011;13153;52.316;21.166;2022-12-29T17:09:17;40.97;;;18.83;;
25207;SDS011;13153;52.316;21.166;2022-12-29T17:11:45;55.10;;;25.98;;
25207;SDS011;13153;52.316;21.166;2022-12-29T17:14:33;55.55;;;25.08;;
25207;SDS011;13153;52.316;21.166;2022-12-29T17:19:47;26.63;;;12.43;;
25207;SDS011;13153;52.316;21.166;2022-12-29T17:22:20;20.80;;;12.00;;
25207;SDS011;13153;52.316;21.166;2022-12-29T17:24:52;24.45;;;12.07;;
25207;SDS011;13153;52.316;21.166;2022-12-29T17:27:21;23.13;;;11.00;;
25207;SDS011;13153;52.316;21.166;2022-12-29T17:30:13;16.95;;;10.10;;
25207;SDS011;13153;52.316;21.166;2022-12-29T17:32:43;21.52;;;11.30;;
25207;SDS011;13153;52.316;21.166;2022-12-29T17:35:17;22.08;;;11.40;;
25207;SDS011;13153;52.316;21.166;2022-12-29T17:37:46;26.10;;;12.30;;
25207;SDS011;13153;52.316;21.166;2022-12-29T17:40:18;26.95;;;12.63;;
25207;SDS011;13153;52.316;21.166;2022-12-29T17:42:51;21.67;;;12.20;;
25207;SDS011;13153;52.316;21.166;2022-12-29T17:45:22;22.60;;;11.40;;
25207;SDS011;13153;52.316;21.166;2022-12-29T17:47:51;20.63;;;11.20;;